Time;durP1;ratioP1;P1;durP2;ratioP2;P2;SDS_P1;SDS_P2;PMS_P1;PMS_P2;Temp;Humidity;BMP_temperature;BMP_pressure;BME280_temperature;BME280_humidity;BME280_pressure;Samples;Min_cycle;Max_cycle;Signal;HPM_P1;HPM_P2
2021/12/17 00:01:39;;;;;;;1.65;1.17;;;;;;;-143.85;100.00;70650.75;5095047;28;20118;-80
2021/12/17 00:04:14;;;;;;;0.47;0.47;;;;;;;-143.85;100.00;70650.75;5095579;28;20115;-77
2021/12/17 00:06:41;;;;;;;1.63;0.95;;;;;;;-143.85;100.00;70650.75;5095058;28;20015;-78
2021/12/17 00:09:07;;;;;;;1.10;1.10;;;;;;;-143.85;100.00;70650.75;5094996;28;20031;-76
2021/12/17 00:11:33;;;;;;;0.85;0.85;;;;;;;-143.85;100.00;70650.75;5094995;28;20077;-81
2021/12/17 00:13:59;;;;;;;1.30;1.30;;;;;;;-143.85;100.00;70650.75;5094940;28;20475;-78
2021/12/17 00:16:29;;;;;;;0.65;0.65;;;;;;;-143.85;100.00;70650.75;5113052;28;20445;-79
2021/12/17 00:48:57;;;;;;;1.23;1.13;;;;;;;-143.85;100.00;70650.75;5112874;28;20032;-80
2021/12/17 00:54:31;;;;;;;3.13;2.92;;;;;;;-143.85;100.00;70650.75;5090261;28;20042;-79
2021/12/17 00:57:00;;;;;;;4.40;2.78;;;;;;;-143.85;100.00;70650.75;5094618;28;20457;-82
2021/12/17 00:59:26;;;;;;;0.75;0.75;;;;;;;-143.85;100.00;70650.75;5094096;28;20031;-79
2021/12/17 01:01:55;;;;;;;0.77;0.77;;;;;;;-143.85;100.00;70650.75;5094616;28;20479;-78
2021/12/17 01:04:21;;;;;;;0.45;0.45;;;;;;;-143.85;100.00;70650.75;5094295;28;20031;-78
2021/12/17 01:06:47;;;;;;;0.55;0.55;;;;;;;-143.85;100.00;70650.75;5094293;28;20031;-77
2021/12/17 01:09:16;;;;;;;2.05;1.90;;;;;;;-143.85;100.00;70650.75;5096173;28;20043;-77
2021/12/17 01:11:43;;;;;;;0.43;0.40;;;;;;;-143.85;100.00;70650.75;5098190;28;20051;-78
2021/12/17 01:14:09;;;;;;;1.75;1.65;;;;;;;-143.85;100.00;70650.75;5098098;28;20024;-81
2021/12/17 01:16:35;;;;;;;0.63;0.63;;;;;;;-143.85;100.00;70650.75;5098074;28;20027;-80
2021/12/17 01:42:38;;;;;;;1.80;1.67;;;;;;;-143.85;100.00;70650.75;5116123;28;20065;-78
2021/12/17 01:45:04;;;;;;;0.40;0.40;;;;;;;-143.85;100.00;70650.75;5074921;28;20048;-76
2021/12/17 01:47:30;;;;;;;0.45;0.45;;;;;;;-143.85;100.00;70650.75;5073829;28;20029;-83
2021/12/17 02:00:55;;;;;;;0.73;0.70;;;;;;;-143.85;100.00;70650.75;5075277;28;20508;-80
2021/12/17 02:03:21;;;;;;;0.35;0.35;;;;;;;-143.85;100.00;70650.75;5073822;28;20032;-79
2021/12/17 02:05:47;;;;;;;1.50;1.13;;;;;;;-143.85;100.00;70650.75;5074873;28;20029;-77
2021/12/17 02:08:12;;;;;;;0.30;0.30;;;;;;;-143.85;100.00;70650.75;5073859;28;20027;-77
2021/12/17 02:32:05;;;;;;;0.20;0.20;;;;;;;-143.85;100.00;70650.75;5075085;28;20107;-80
2021/12/17 02:37:13;;;;;;;0.50;0.50;;;;;;;-143.85;100.00;70650.75;5074547;28;20472;-81
2021/12/17 02:47:40;;;;;;;0.20;0.20;;;;;;;-143.85;100.00;70650.75;5115297;28;20395;-79
2021/12/17 02:50:07;;;;;;;0.75;0.75;;;;;;;-143.85;100.00;70650.75;5096628;28;20035;-79
2021/12/17 02:52:36;;;;;;;2.70;2.47;;;;;;;-143.85;100.00;70650.75;5096813;28;20171;-77
2021/12/17 02:55:05;;;;;;;0.17;0.17;;;;;;;-143.85;100.00;70650.75;5096332;28;20130;-80
2021/12/17 02:57:31;;;;;;;0.82;0.82;;;;;;;-143.85;100.00;70650.75;5096119;28;20077;-79
2021/12/17 02:59:59;;;;;;;0.30;0.30;;;;;;;-143.85;100.00;70650.75;5096090;28;20035;-77
2021/12/17 03:02:27;;;;;;;1.48;1.48;;;;;;;-143.85;100.00;70650.75;5096064;28;20053;-77
2021/12/17 03:04:53;;;;;;;1.77;1.67;;;;;;;-143.85;100.00;70650.75;5096237;28;20494;-78
2021/12/17 03:07:19;;;;;;;1.65;0.43;;;;;;;-143.85;100.00;70650.75;5114206;28;20020;-78
2021/12/17 03:10:05;;;;;;;1.02;0.85;;;;;;;-143.85;100.00;70650.75;5096002;28;20027;-77
2021/12/17 03:12:42;;;;;;;0.20;0.20;;;;;;;-143.85;100.00;70650.75;5096710;28;20023;-78
2021/12/17 03:25:53;;;;;;;1.58;1.48;;;;;;;-143.85;100.00;70650.75;5114537;28;20087;-76
2021/12/17 03:28:18;;;;;;;1.15;0.95;;;;;;;-143.85;100.00;70650.75;5095983;28;20028;-77
2021/12/17 03:30:45;;;;;;;0.25;0.25;;;;;;;-143.85;100.00;70650.75;5095657;28;20103;-77
2021/12/17 03:33:11;;;;;;;0.30;0.30;;;;;;;-143.85;100.00;70650.75;5095540;28;20023;-75
2021/12/17 03:35:37;;;;;;;0.50;0.50;;;;;;;-143.85;100.00;70650.75;5095902;28;20135;-74
2021/12/17 03:38:02;;;;;;;0.55;0.55;;;;;;;-143.85;100.00;70650.75;5095788;28;20035;-76
2021/12/17 03:40:31;;;;;;;2.10;1.90;;;;;;;-143.85;100.00;70650.75;5095738;28;20034;-76
2021/12/17 03:43:02;;;;;;;0.25;0.25;;;;;;;-143.85;100.00;70650.75;5095309;28;20028;-79
2021/12/17 03:45:28;;;;;;;0.22;0.22;;;;;;;-143.85;100.00;70650.75;5113965;28;20020;-78
2021/12/17 03:47:54;;;;;;;1.02;1.00;;;;;;;-143.85;100.00;70650.75;5095720;28;20118;-75
2021/12/17 03:50:20;;;;;;;0.20;0.20;;;;;;;-143.85;100.00;70650.75;5095790;28;20494;-77
2021/12/17 03:52:45;;;;;;;0.40;0.40;;;;;;;-143.85;100.00;70650.75;5095343;28;20134;-80
2021/12/17 03:55:11;;;;;;;0.20;0.20;;;;;;;-143.85;100.00;70650.75;5095456;28;20479;-77
2021/12/17 03:57:37;;;;;;;0.52;0.52;;;;;;;-143.85;100.00;70650.75;5095491;28;20038;-75
2021/12/17 04:00:09;;;;;;;0.20;0.20;;;;;;;-143.85;100.00;70650.75;5095604;28;20498;-76
2021/12/17 04:02:35;;;;;;;0.60;0.60;;;;;;;-143.85;100.00;70650.75;5095928;28;20039;-76
2021/12/17 04:05:01;;;;;;;0.40;0.40;;;;;;;-143.85;100.00;70650.75;5095307;28;20016;-75
2021/12/17 04:07:26;;;;;;;2.42;1.30;;;;;;;-143.85;100.00;70650.75;5113175;28;20031;-77
2021/12/17 04:09:52;;;;;;;1.33;1.27;;;;;;;-143.85;100.00;70650.75;5095199;28;20468;-78
2021/12/17 04:12:20;;;;;;;0.55;0.55;;;;;;;-143.85;100.00;70650.75;5095069;28;20030;-79
2021/12/17 04:14:47;;;;;;;0.40;0.40;;;;;;;-143.85;100.00;70650.75;5094517;28;20032;-79
2021/12/17 04:17:21;;;;;;;0.50;0.50;;;;;;;-143.85;100.00;70650.75;5113000;28;20172;-78
2021/12/17 04:19:47;;;;;;;0.38;0.38;;;;;;;-143.85;100.00;70650.75;5095402;28;20380;-78
2021/12/17 04:22:13;;;;;;;1.33;0.93;;;;;;;-143.85;100.00;70650.75;5094977;28;20020;-80
2021/12/17 04:24:38;;;;;;;0.22;0.22;;;;;;;-143.85;100.00;70650.75;5094706;28;20034;-79
2021/12/17 04:27:05;;;;;;;0.77;0.63;;;;;;;-143.85;100.00;70650.75;5095315;28;20031;-82
2021/12/17 04:29:32;;;;;;;0.50;0.50;;;;;;;-143.85;100.00;70650.75;5094734;28;20111;-79
2021/12/17 04:31:57;;;;;;;0.60;0.60;;;;;;;-143.85;100.00;70650.75;5094835;28;20098;-75
2021/12/17 04:34:23;;;;;;;0.60;0.60;;;;;;;-143.85;100.00;70650.75;5094932;28;20035;-79
2021/12/17 04:36:52;;;;;;;0.65;0.65;;;;;;;-143.85;100.00;70650.75;5094826;28;20034;-79
2021/12/17 04:39:19;;;;;;;1.40;1.30;;;;;;;-143.85;100.00;70650.75;5094778;28;20058;-75
2021/12/17 04:42:05;;;;;;;1.67;1.52;;;;;;;-143.85;100.00;70650.75;5113375;28;20131;-79
2021/12/17 04:44:34;;;;;;;0.50;0.50;;;;;;;-143.85;100.00;70650.75;5114780;28;20086;-78
2021/12/17 04:57:40;;;;;;;0.28;0.28;;;;;;;-143.85;100.00;70650.75;5116993;28;20034;-74
2021/12/17 05:00:32;;;;;;;0.55;0.55;;;;;;;-143.85;100.00;70650.75;5098868;28;20042;-79
2021/12/17 05:03:00;;;;;;;0.50;0.50;;;;;;;-143.85;100.00;70650.75;5112277;28;20114;-74
2021/12/17 05:05:30;;;;;;;0.30;0.30;;;;;;;-143.85;100.00;70650.75;5098990;28;20019;-76
2021/12/17 05:08:02;;;;;;;0.32;0.30;;;;;;;-143.85;100.00;70650.75;5098600;28;20026;-79
2021/12/17 05:18:28;;;;;;;0.25;0.25;;;;;;;-143.85;100.00;70650.75;5117022;28;20507;-74
2021/12/17 05:21:00;;;;;;;0.50;0.50;;;;;;;-143.85;100.00;70650.75;5098849;28;20036;-77
2021/12/17 05:23:31;;;;;;;1.30;0.60;;;;;;;-143.85;100.00;70650.75;5098708;28;20055;-76
2021/12/17 05:25:59;;;;;;;0.65;0.65;;;;;;;-143.85;100.00;70650.75;5098768;28;20157;-75
2021/12/17 05:28:24;;;;;;;0.77;0.77;;;;;;;-143.85;100.00;70650.75;5099172;28;20110;-80
2021/12/17 05:30:50;;;;;;;0.77;0.77;;;;;;;-143.85;100.00;70650.75;5098323;28;20051;-76
2021/12/17 05:33:17;;;;;;;0.30;0.30;;;;;;;-143.85;100.00;70650.75;5098193;28;20035;-80
2021/12/17 05:35:43;;;;;;;0.63;0.63;;;;;;;-143.85;100.00;70650.75;5097969;28;20023;-75
2021/12/17 05:38:11;;;;;;;0.30;0.30;;;;;;;-143.85;100.00;70650.75;5116368;28;20068;-75
2021/12/17 05:40:37;;;;;;;0.30;0.30;;;;;;;-143.85;100.00;70650.75;5097791;28;20027;-79
2021/12/17 05:43:05;;;;;;;0.20;0.20;;;;;;;-143.85;100.00;70650.75;5097566;28;20027;-79
2021/12/17 05:45:37;;;;;;;0.40;0.40;;;;;;;-143.85;100.00;70650.75;5098246;28;20077;-81
2021/12/17 05:48:05;;;;;;;0.70;0.70;;;;;;;-143.85;100.00;70650.75;5116197;28;20480;-78
2021/12/17 05:50:36;;;;;;;0.40;0.40;;;;;;;-143.85;100.00;70650.75;5097536;28;20023;-76
2021/12/17 05:53:03;;;;;;;0.30;0.30;;;;;;;-143.85;100.00;70650.75;5097857;28;20442;-76
2021/12/17 05:55:28;;;;;;;1.15;1.05;;;;;;;-143.85;100.00;70650.75;5096845;28;20550;-79
2021/12/17 05:57:54;;;;;;;0.30;0.30;;;;;;;-143.85;100.00;70650.75;5097891;28;20122;-79
2021/12/17 06:00:21;;;;;;;0.60;0.60;;;;;;;-143.85;100.00;70650.75;5097554;28;20039;-76
2021/12/17 06:02:47;;;;;;;1.88;1.58;;;;;;;-143.85;100.00;70650.75;5098122;28;20126;-79
2021/12/17 06:05:14;;;;;;;1.10;1.10;;;;;;;-143.85;100.00;70650.75;5097844;28;20019;-79
2021/12/17 06:07:39;;;;;;;0.55;0.55;;;;;;;-143.85;100.00;70650.75;5097449;28;20143;-76
2021/12/17 06:10:08;;;;;;;0.52;0.52;;;;;;;-143.85;100.00;70650.75;5097340;28;20598;-78
2021/12/17 06:12:33;;;;;;;;;;;;;;;-143.85;100.00;70650.75;5116320;28;20020;-78
2021/12/17 06:14:58;;;;;;;0.20;0.20;;;;;;;-143.85;100.00;70650.75;5097285;28;19908;-78
2021/12/17 06:17:24;;;;;;;0.38;0.38;;;;;;;-143.85;100.00;70650.75;5097286;28;20027;-76
2021/12/17 06:19:49;;;;;;;0.30;0.30;;;;;;;-143.85;100.00;70650.75;5097879;28;20031;-79
2021/12/17 06:22:16;;;;;;;1.70;1.60;;;;;;;-143.85;100.00;70650.75;5098036;28;20036;-79
2021/12/17 06:24:44;;;;;;;0.45;0.45;;;;;;;-143.85;100.00;70650.75;5096812;28;20058;-74
2021/12/17 06:27:15;;;;;;;0.85;0.85;;;;;;;-143.85;100.00;70650.75;5097854;28;20030;-78
2021/12/17 06:29:41;;;;;;;3.40;3.20;;;;;;;-143.85;100.00;70650.75;5097046;28;20057;-77
2021/12/17 06:32:08;;;;;;;4.45;4.15;;;;;;;-143.85;100.00;70650.75;5097023;28;20518;-79
2021/12/17 06:34:33;;;;;;;2.80;2.60;;;;;;;-143.85;100.00;70650.75;5096928;28;20038;-76
2021/12/17 06:36:59;;;;;;;1.65;1.55;;;;;;;-143.85;100.00;70650.75;5096764;28;20016;-75
2021/12/17 06:39:25;;;;;;;27.98;21.98;;;;;;;-143.85;100.00;70650.75;5097131;28;20077;-74
2021/12/17 06:41:50;;;;;;;61.28;45.25;;;;;;;-143.85;100.00;70650.75;5097256;28;20047;-74
2021/12/17 06:44:22;;;;;;;19.95;17.08;;;;;;;-143.85;100.00;70650.75;5096918;28;20412;-75
2021/12/17 06:49:31;;;;;;;3.67;3.33;;;;;;;-143.85;100.00;70650.75;5115138;28;20080;-74
2021/12/17 07:10:45;;;;;;;0.30;0.30;;;;;;;-143.85;100.00;70650.75;5114658;28;20038;-75
2021/12/17 07:39:50;;;;;;;1.10;1.10;;;;;;;-143.85;100.00;70650.75;5113481;28;20079;-76
2021/12/17 07:42:16;;;;;;;0.60;0.60;;;;;;;-143.85;100.00;70650.75;5095541;28;20490;-75
2021/12/17 07:44:41;;;;;;;0.57;0.57;;;;;;;-143.85;100.00;70650.75;5095054;28;20051;-79
2021/12/17 07:47:07;;;;;;;0.75;0.75;;;;;;;-143.85;100.00;70650.75;5113663;28;20077;-74
2021/12/17 07:49:32;;;;;;;4.38;4.05;;;;;;;-143.85;100.00;70650.75;5095896;28;20035;-76
2021/12/17 07:52:03;;;;;;;43.35;24.92;;;;;;;-143.85;100.00;70650.75;5095626;28;20028;-75
2021/12/17 07:54:28;;;;;;;8.95;5.38;;;;;;;-143.85;100.00;70650.75;5096027;28;20031;-74
2021/12/17 07:56:54;;;;;;;45.58;29.77;;;;;;;-143.85;100.00;70650.75;5095552;28;20046;-74
2021/12/17 07:59:19;;;;;;;7.82;6.60;;;;;;;-143.85;100.00;70650.75;5096295;28;20036;-75
2021/12/17 08:01:45;;;;;;;1.67;1.67;;;;;;;-143.85;100.00;70650.75;5095465;28;20044;-76
2021/12/17 08:04:11;;;;;;;2.55;2.35;;;;;;;-143.85;100.00;70650.75;5095482;28;20032;-75
2021/12/17 08:06:37;;;;;;;1.05;1.05;;;;;;;-143.85;100.00;70650.75;5095858;28;20039;-75
2021/12/17 08:09:06;;;;;;;2.08;1.83;;;;;;;-143.85;100.00;70650.75;5095165;28;20035;-78
2021/12/17 08:11:38;;;;;;;2.80;1.88;;;;;;;-143.85;100.00;70650.75;5095497;28;20027;-73
2021/12/17 08:14:08;;;;;;;8.13;2.22;;;;;;;-143.85;100.00;70650.75;5096092;28;20027;-77
2021/12/17 08:16:42;;;;;;;6.18;1.38;;;;;;;-143.85;100.00;70650.75;5094218;28;20027;-78
2021/12/17 08:24:52;;;;;;;2.60;2.25;;;;;;;-143.85;100.00;70650.75;5113922;28;20085;-75
2021/12/17 08:27:43;;;;;;;1.00;0.63;;;;;;;-143.85;100.00;70650.75;5095451;28;20031;-75
2021/12/17 08:32:44;;;;;;;0.57;0.57;;;;;;;-143.85;100.00;70650.75;5113382;28;20065;-76
2021/12/17 08:35:11;;;;;;;5.18;3.95;;;;;;;-143.85;100.00;70650.75;5095042;28;20024;-74
2021/12/17 08:37:37;;;;;;;1.33;1.17;;;;;;;-143.85;100.00;70650.75;5094901;28;20020;-78
2021/12/17 08:40:04;;;;;;;1.75;0.43;;;;;;;-143.85;100.00;70650.75;5095068;28;20471;-75
2021/12/17 08:42:29;;;;;;;0.40;0.40;;;;;;;-143.85;100.00;70650.75;5094609;28;20031;-77
2021/12/17 08:44:55;;;;;;;0.85;0.68;;;;;;;-143.85;100.00;70650.75;5094678;28;20388;-76
2021/12/17 08:47:21;;;;;;;2.05;1.52;;;;;;;-143.85;100.00;70650.75;5095253;28;20055;-74
2021/12/17 08:49:48;;;;;;;0.22;0.22;;;;;;;-143.85;100.00;70650.75;5094888;28;20067;-77
2021/12/17 08:52:14;;;;;;;0.43;0.30;;;;;;;-143.85;100.00;70650.75;5094678;28;20027;-75
2021/12/17 08:54:40;;;;;;;0.20;0.20;;;;;;;-143.85;100.00;70650.75;5094468;28;20031;-77
2021/12/17 08:57:05;;;;;;;1.08;1.08;;;;;;;-143.85;100.00;70650.75;5094510;28;20028;-78
2021/12/17 08:59:31;;;;;;;12.63;3.47;;;;;;;-143.85;100.00;70650.75;5094361;28;20081;-77
2021/12/17 09:01:57;;;;;;;1.10;1.10;;;;;;;-143.85;100.00;70650.75;5094645;28;20035;-76
2021/12/17 09:04:23;;;;;;;1.25;1.25;;;;;;;-143.85;100.00;70650.75;5094545;28;20024;-75
2021/12/17 09:06:49;;;;;;;8.43;1.25;;;;;;;-143.85;100.00;70650.75;5094381;28;20019;-76
2021/12/17 09:09:19;;;;;;;9.55;4.95;;;;;;;-143.85;100.00;70650.75;5094351;28;20028;-75
2021/12/17 09:11:44;;;;;;;4.68;4.22;;;;;;;-143.85;100.00;70650.75;5094282;28;20097;-76
2021/12/17 09:14:11;;;;;;;0.30;0.30;;;;;;;-143.85;100.00;70650.75;5094311;28;20023;-78
2021/12/17 09:16:36;;;;;;;0.17;0.17;;;;;;;-143.85;100.00;70650.75;5094730;28;20051;-77
2021/12/17 09:19:04;;;;;;;0.20;0.20;;;;;;;-143.85;100.00;70650.75;5094536;28;20047;-78
2021/12/17 09:21:30;;;;;;;0.33;0.33;;;;;;;-143.85;100.00;70650.75;5094550;28;20085;-76
2021/12/17 09:23:56;;;;;;;1.05;1.05;;;;;;;-143.85;100.00;70650.75;5094294;28;20028;-77
2021/12/17 09:26:22;;;;;;;0.47;0.47;;;;;;;-143.85;100.00;70650.75;5094387;28;20050;-76
2021/12/17 09:28:49;;;;;;;0.55;0.55;;;;;;;-143.85;100.00;70650.75;5094238;28;20043;-78
2021/12/17 09:31:15;;;;;;;14.90;5.10;;;;;;;-143.85;100.00;70650.75;5097516;28;20471;-76
2021/12/17 09:33:42;;;;;;;5.93;3.83;;;;;;;-143.85;100.00;70650.75;5097805;28;20503;-76
2021/12/17 09:36:08;;;;;;;5.88;5.30;;;;;;;-143.85;100.00;70650.75;5097853;28;20028;-77
2021/12/17 09:38:34;;;;;;;6.15;3.33;;;;;;;-143.85;100.00;70650.75;5097859;28;20020;-77
2021/12/17 09:41:00;;;;;;;3.67;2.03;;;;;;;-143.85;100.00;70650.75;5098148;28;20028;-75
2021/12/17 09:43:27;;;;;;;0.30;0.30;;;;;;;-143.85;100.00;70650.75;5089178;28;20044;-74
2021/12/17 09:45:53;;;;;;;0.60;0.60;;;;;;;-143.85;100.00;70650.75;5073905;28;20028;-75
2021/12/17 09:48:19;;;;;;;0.98;0.50;;;;;;;-143.85;100.00;70650.75;5074303;28;20025;-76
2021/12/17 09:50:45;;;;;;;0.20;0.20;;;;;;;-143.85;100.00;70650.75;5074050;28;20033;-76
2021/12/17 09:53:11;;;;;;;0.90;0.82;;;;;;;-143.85;100.00;70650.75;5074052;28;20024;-74
2021/12/17 09:55:37;;;;;;;0.20;0.20;;;;;;;-143.85;100.00;70650.75;5074281;28;20029;-75
2021/12/17 09:58:03;;;;;;;0.55;0.55;;;;;;;-143.85;100.00;70650.75;5074297;28;20028;-77
2021/12/17 10:00:28;;;;;;;0.20;0.20;;;;;;;-143.85;100.00;70650.75;5074258;28;20483;-76
2021/12/17 10:02:54;;;;;;;0.85;0.85;;;;;;;-143.85;100.00;70650.75;5074120;28;20052;-75
2021/12/17 10:05:26;;;;;;;0.40;0.40;;;;;;;-143.85;100.00;70650.75;5074311;28;20055;-78
2021/12/17 10:08:04;;;;;;;0.28;0.28;;;;;;;-143.85;100.00;70650.75;5074204;28;20116;-76
2021/12/17 10:10:43;;;;;;;0.30;0.30;;;;;;;-143.85;100.00;70650.75;5074342;28;20082;-75
2021/12/17 10:13:32;;;;;;;1.38;1.38;;;;;;;-143.85;100.00;70650.75;5074131;28;20028;-77
2021/12/17 10:16:07;;;;;;;0.30;0.30;;;;;;;-143.85;100.00;70650.75;5073716;28;20086;-76
2021/12/17 10:18:42;;;;;;;3.38;3.03;;;;;;;-143.85;100.00;70650.75;5074182;28;20148;-75
2021/12/17 10:21:16;;;;;;;2.83;2.70;;;;;;;-143.85;100.00;70650.75;5073978;28;20032;-76
2021/12/17 10:23:43;;;;;;;3.05;2.75;;;;;;;-143.85;100.00;70650.75;5073711;28;20024;-74
2021/12/17 10:26:14;;;;;;;0.30;0.30;;;;;;;-143.85;100.00;70650.75;5073557;28;20035;-77
2021/12/17 10:29:02;;;;;;;0.30;0.30;;;;;;;-143.85;100.00;70650.75;5073872;28;20413;-74
2021/12/17 10:31:30;;;;;;;1.10;1.02;;;;;;;-143.85;100.00;70650.75;5073489;28;20029;-75
2021/12/17 10:34:00;;;;;;;0.30;0.30;;;;;;;-143.85;100.00;70650.75;5074480;28;20025;-75
2021/12/17 10:36:41;;;;;;;0.28;0.28;;;;;;;-143.85;100.00;70650.75;5073382;28;20024;-74
2021/12/17 10:39:31;;;;;;;0.20;0.20;;;;;;;-143.85;100.00;70650.75;5073636;28;20023;-75
2021/12/17 10:41:56;;;;;;;0.30;0.30;;;;;;;-143.85;100.00;70650.75;5073598;28;20113;-75
2021/12/17 10:44:23;;;;;;;0.20;0.20;;;;;;;-143.85;100.00;70650.75;5073008;28;20485;-74
2021/12/17 10:47:08;;;;;;;0.30;0.30;;;;;;;-143.85;100.00;70650.75;5073195;28;20024;-76
2021/12/17 10:49:34;;;;;;;2.72;1.58;;;;;;;-143.85;100.00;70650.75;5073903;28;20469;-74
2021/12/17 10:52:14;;;;;;;1.17;0.90;;;;;;;-143.85;100.00;70650.75;5073078;28;20119;-75
2021/12/17 10:54:40;;;;;;;2.35;2.03;;;;;;;-143.85;100.00;70650.75;5073454;28;20113;-76
2021/12/17 10:57:09;;;;;;;0.73;0.73;;;;;;;-143.85;100.00;70650.75;5073016;28;20025;-76
2021/12/17 10:59:36;;;;;;;1.05;0.95;;;;;;;-143.85;100.00;70650.75;5072804;28;20028;-76
2021/12/17 11:02:10;;;;;;;0.20;0.20;;;;;;;-143.85;100.00;70650.75;5072931;28;20060;-77
2021/12/17 11:04:42;;;;;;;0.65;0.57;;;;;;;-143.85;100.00;70650.75;5073347;28;20481;-75
2021/12/17 11:07:13;;;;;;;0.40;0.40;;;;;;;-143.85;100.00;70650.75;5073350;28;20047;-76
2021/12/17 11:10:00;;;;;;;0.68;0.68;;;;;;;-143.85;100.00;70650.75;5072938;28;20032;-74
2021/12/17 11:12:28;;;;;;;0.20;0.20;;;;;;;-143.85;100.00;70650.75;5072755;28;20028;-75
2021/12/17 11:15:04;;;;;;;1.27;1.17;;;;;;;-143.85;100.00;70650.75;5072849;28;20039;-77
2021/12/17 11:17:30;;;;;;;6.28;2.58;;;;;;;-143.85;100.00;70650.75;5073085;28;20502;-74
2021/12/17 11:19:56;;;;;;;9.18;6.95;;;;;;;-143.85;100.00;70650.75;5072641;28;20060;-75
2021/12/17 11:22:23;;;;;;;3.78;3.55;;;;;;;-143.85;100.00;70650.75;5072861;28;20028;-75
2021/12/17 11:24:50;;;;;;;0.50;0.50;;;;;;;-143.85;100.00;70650.75;5073205;28;20514;-75
2021/12/17 11:27:15;;;;;;;2.10;1.77;;;;;;;-143.85;100.00;70650.75;5072599;28;20079;-75
2021/12/17 11:29:41;;;;;;;0.45;0.45;;;;;;;-143.85;100.00;70650.75;5072765;28;20125;-74
2021/12/17 11:32:07;;;;;;;0.20;0.20;;;;;;;-143.85;100.00;70650.75;5072504;28;20032;-76
2021/12/17 11:34:34;;;;;;;0.20;0.20;;;;;;;-143.85;100.00;70650.75;5072145;28;20021;-77
2021/12/17 11:37:03;;;;;;;0.32;0.32;;;;;;;-143.85;100.00;70650.75;5072246;28;20028;-81
2021/12/17 11:39:33;;;;;;;2.70;2.03;;;;;;;-143.85;100.00;70650.75;5071535;28;20112;-75
2021/12/17 11:42:29;;;;;;;4.72;1.67;;;;;;;-143.85;100.00;70650.75;5070407;28;20024;-77
2021/12/17 11:47:48;;;;;;;1.55;1.45;;;;;;;-143.85;100.00;70650.75;5073219;28;20051;-76
2021/12/17 11:50:16;;;;;;;0.45;0.45;;;;;;;-143.85;100.00;70650.75;5055517;28;20052;-73
2021/12/17 11:52:49;;;;;;;0.20;0.20;;;;;;;-143.85;100.00;70650.75;5080276;28;20031;-77
2021/12/17 11:55:20;;;;;;;0.30;0.30;;;;;;;-143.85;100.00;70650.75;5092178;28;20039;-74
2021/12/17 11:57:47;;;;;;;0.25;0.25;;;;;;;-143.85;100.00;70650.75;5092037;28;20028;-76
2021/12/17 12:00:15;;;;;;;0.40;0.40;;;;;;;-143.85;100.00;70650.75;5091956;28;20032;-76
2021/12/17 12:02:49;;;;;;;0.43;0.43;;;;;;;-143.85;100.00;70650.75;5092189;28;20032;-78
2021/12/17 12:05:33;;;;;;;0.50;0.50;;;;;;;-143.85;100.00;70650.75;5091883;28;20115;-73
2021/12/17 12:08:23;;;;;;;0.28;0.28;;;;;;;-143.85;100.00;70650.75;5092372;28;20089;-74
2021/12/17 12:11:09;;;;;;;2.25;0.85;;;;;;;-143.85;100.00;70650.75;5091629;28;20027;-74
2021/12/17 12:13:49;;;;;;;0.20;0.20;;;;;;;-143.85;100.00;70650.75;5092085;28;20561;-74
2021/12/17 12:16:18;;;;;;;0.50;0.50;;;;;;;-143.85;100.00;70650.75;5091866;28;20128;-75
2021/12/17 12:18:49;;;;;;;0.32;0.32;;;;;;;-143.85;100.00;70650.75;5091657;28;20031;-77
2021/12/17 12:21:19;;;;;;;0.28;0.28;;;;;;;-143.85;100.00;70650.75;5091933;28;20488;-74
2021/12/17 12:24:09;;;;;;;0.35;0.35;;;;;;;-143.85;100.00;70650.75;5092025;28;20024;-75
2021/12/17 12:26:55;;;;;;;0.20;0.20;;;;;;;-143.85;100.00;70650.75;5080376;28;20093;-74
2021/12/17 12:29:23;;;;;;;0.10;0.10;;;;;;;-143.85;100.00;70650.75;5090461;28;20105;-75
2021/12/17 12:31:50;;;;;;;;;;;;;;;-143.85;100.00;70650.75;5092031;28;20077;-74
2021/12/17 12:34:19;;;;;;;0.70;0.70;;;;;;;-143.85;100.00;70650.75;5091649;28;19914;-77
2021/12/17 12:37:00;;;;;;;0.30;0.30;;;;;;;-143.85;100.00;70650.75;5091205;28;20453;-74
2021/12/17 12:39:37;;;;;;;0.20;0.20;;;;;;;-143.85;100.00;70650.75;5091471;28;20028;-76
2021/12/17 12:42:17;;;;;;;0.20;0.20;;;;;;;-143.85;100.00;70650.75;5091544;28;20067;-76
2021/12/17 12:44:42;;;;;;;0.20;0.20;;;;;;;-143.85;100.00;70650.75;5091213;28;20094;-75
2021/12/17 12:47:25;;;;;;;0.65;0.65;;;;;;;-143.85;100.00;70650.75;5091445;28;20044;-74
2021/12/17 12:50:11;;;;;;;5.47;1.10;;;;;;;-143.85;100.00;70650.75;5091742;28;20031;-77
2021/12/17 12:52:49;;;;;;;0.70;0.70;;;;;;;-143.85;100.00;70650.75;5091379;28;20111;-74
2021/12/17 12:55:23;;;;;;;0.57;0.57;;;;;;;-143.85;100.00;70650.75;5091528;28;20119;-78
2021/12/17 12:58:07;;;;;;;0.20;0.20;;;;;;;-143.85;100.00;70650.75;5091435;28;20522;-76
2021/12/17 13:00:57;;;;;;;0.57;0.57;;;;;;;-143.85;100.00;70650.75;5091797;28;20503;-77
2021/12/17 13:03:29;;;;;;;0.50;0.50;;;;;;;-143.85;100.00;70650.75;5091891;28;20472;-74
2021/12/17 13:05:56;;;;;;;5.63;3.72;;;;;;;-143.85;100.00;70650.75;5094296;28;20028;-75
2021/12/17 13:08:23;;;;;;;1.27;1.17;;;;;;;-143.85;100.00;70650.75;5095302;28;20032;-74
2021/12/17 13:11:06;;;;;;;0.70;0.68;;;;;;;-143.85;100.00;70650.75;5095128;28;20052;-73
2021/12/17 13:13:38;;;;;;;0.30;0.30;;;;;;;-143.85;100.00;70650.75;5095689;28;20470;-78
2021/12/17 13:16:18;;;;;;;0.30;0.30;;;;;;;-143.85;100.00;70650.75;5095268;28;20028;-76
2021/12/17 13:24:11;;;;;;;0.38;0.38;;;;;;;-143.85;100.00;70650.75;5096031;28;20028;-78
2021/12/17 13:26:38;;;;;;;0.30;0.30;;;;;;;-143.85;100.00;70650.75;5094661;28;20483;-74
2021/12/17 13:29:11;;;;;;;0.50;0.50;;;;;;;-143.85;100.00;70650.75;5094942;28;20027;-75
2021/12/17 13:32:29;;;;;;;0.20;0.20;;;;;;;-143.85;100.00;70650.75;5095259;28;20032;-75
2021/12/17 13:34:56;;;;;;;;;;;;;;;-143.85;100.00;70650.75;5096127;28;20074;-73
2021/12/17 13:37:34;;;;;;;0.20;0.20;;;;;;;-143.85;100.00;70650.75;5094610;28;20338;-74
2021/12/17 13:40:02;;;;;;;;;;;;;;;-143.85;100.00;70650.75;5095642;28;20115;-73
2021/12/17 13:42:35;;;;;;;1.02;0.95;;;;;;;-143.85;100.00;70650.75;5095797;28;20393;-75
2021/12/17 13:45:04;;;;;;;3.72;3.42;;;;;;;-143.85;100.00;70650.75;5094468;28;20127;-76
2021/12/17 13:47:34;;;;;;;1.88;1.77;;;;;;;-143.85;100.00;70650.75;5094859;28;20032;-77
2021/12/17 13:50:19;;;;;;;1.75;1.70;;;;;;;-143.85;100.00;70650.75;5094488;28;20024;-74
2021/12/17 13:52:46;;;;;;;0.28;0.28;;;;;;;-143.85;100.00;70650.75;5095334;28;20028;-75
2021/12/17 13:55:14;;;;;;;0.77;0.77;;;;;;;-143.85;100.00;70650.75;5094462;28;20438;-73
2021/12/17 13:57:41;;;;;;;0.10;0.10;;;;;;;-143.85;100.00;70650.75;5094284;28;20024;-77
2021/12/17 14:00:14;;;;;;;3.15;1.00;;;;;;;-143.85;100.00;70650.75;5094365;28;20496;-79
2021/12/17 14:02:42;;;;;;;0.30;0.30;;;;;;;-143.85;100.00;70650.75;5077860;28;20040;-76
2021/12/17 14:05:15;;;;;;;1.92;1.38;;;;;;;-143.85;100.00;70650.75;5094079;28;20031;-79
2021/12/17 14:07:41;;;;;;;1.00;1.00;;;;;;;-143.85;100.00;70650.75;5094484;28;20475;-75
2021/12/17 14:10:14;;;;;;;0.20;0.20;;;;;;;-143.85;100.00;70650.75;5093792;28;20028;-77
2021/12/17 14:12:42;;;;;;;0.30;0.30;;;;;;;-143.85;100.00;70650.75;5094468;28;20051;-76
2021/12/17 14:15:20;;;;;;;0.38;0.38;;;;;;;-143.85;100.00;70650.75;5093413;28;20039;-78
2021/12/17 14:17:46;;;;;;;;;;;;;;;-143.85;100.00;70650.75;5095843;28;20089;-80
2021/12/17 14:20:14;;;;;;;0.20;0.20;;;;;;;-143.85;100.00;70650.75;5093726;28;19966;-75
2021/12/17 14:22:45;;;;;;;0.37;0.37;;;;;;;-143.85;100.00;70650.75;5093582;28;20028;-78
2021/12/17 14:25:31;;;;;;;0.35;0.35;;;;;;;-143.85;100.00;70650.75;5093562;28;20301;-79
2021/12/17 14:28:07;;;;;;;0.30;0.30;;;;;;;-143.85;100.00;70650.75;5093730;28;20097;-79
2021/12/17 14:30:33;;;;;;;0.20;0.20;;;;;;;-143.85;100.00;70650.75;5094783;28;20494;-77
2021/12/17 14:33:11;;;;;;;0.68;0.68;;;;;;;-143.85;100.00;70650.75;5093545;28;20032;-78
2021/12/17 14:35:40;;;;;;;0.30;0.30;;;;;;;-143.85;100.00;70650.75;5094056;28;20028;-79